Time;durP1;ratioP1;P1;durP2;ratioP2;P2;SDS_P1;SDS_P2;PMS_P1;PMS_P2;Temp;Humidity;BMP_temperature;BMP_pressure;BME280_temperature;BME280_humidity;BME280_pressure;Samples;Min_cycle;Max_cycle;Signal;HPM_P1;HPM_P2
2022/04/27 00:01:15;;;;;;;10.07;5.80;;;6.60;99.90;;;;;;5070690;28;20052;-45
2022/04/27 00:03:41;;;;;;;8.23;5.78;;;6.60;99.90;;;;;;5071945;28;20047;-48
2022/04/27 00:06:08;;;;;;;9.25;5.68;;;6.50;99.90;;;;;;5073927;28;20064;-46
2022/04/27 00:08:34;;;;;;;10.35;6.50;;;6.40;99.90;;;;;;5070099;28;20036;-47
2022/04/27 00:10:59;;;;;;;12.30;6.30;;;6.50;99.90;;;;;;5071800;28;20051;-46
2022/04/27 00:13:25;;;;;;;13.02;6.28;;;6.60;99.90;;;;;;5071812;28;20036;-45
2022/04/27 00:15:51;;;;;;;9.82;6.53;;;6.70;99.90;;;;;;5069981;28;20155;-47
2022/04/27 00:18:16;;;;;;;11.52;6.82;;;6.70;99.90;;;;;;5070281;28;20036;-47
2022/04/27 00:20:42;;;;;;;11.07;6.95;;;6.80;99.90;;;;;;5070490;28;20033;-47
2022/04/27 00:23:08;;;;;;;11.02;6.85;;;6.90;99.90;;;;;;5070583;28;20135;-49
2022/04/27 00:25:34;;;;;;;9.52;6.47;;;6.80;99.90;;;;;;5070621;28;20089;-47
2022/04/27 00:28:00;;;;;;;9.20;6.13;;;6.80;99.90;;;;;;5070516;28;20040;-47
2022/04/27 00:30:25;;;;;;;10.27;5.75;;;6.80;99.90;;;;;;5070037;28;20044;-47
2022/04/27 00:32:51;;;;;;;7.60;5.55;;;6.80;99.90;;;;;;5070408;28;20048;-49
2022/04/27 00:35:17;;;;;;;8.55;5.57;;;6.70;99.90;;;;;;5070573;28;20048;-46
2022/04/27 00:37:42;;;;;;;7.07;4.63;;;6.80;99.90;;;;;;5070343;28;20043;-47
2022/04/27 00:40:09;;;;;;;7.00;3.80;;;6.70;99.90;;;;;;5070498;28;20039;-48
2022/04/27 00:42:34;;;;;;;7.28;4.47;;;6.50;99.90;;;;;;5070105;28;20579;-46
2022/04/27 00:45:02;;;;;;;6.47;4.47;;;6.40;99.90;;;;;;5070126;28;20123;-45
2022/04/27 00:47:30;;;;;;;7.45;4.07;;;6.40;99.90;;;;;;5070468;28;20036;-46
2022/04/27 00:49:57;;;;;;;6.32;4.32;;;6.30;99.90;;;;;;5076349;28;20102;-46
2022/04/27 00:52:24;;;;;;;6.78;4.15;;;6.30;99.90;;;;;;5077315;28;20047;-46
2022/04/27 00:54:53;;;;;;;5.93;4.65;;;6.10;99.90;;;;;;5052119;28;20080;-45
2022/04/27 00:57:22;;;;;;;6.65;4.70;;;6.10;99.90;;;;;;5070403;28;20478;-46
2022/04/27 00:59:48;;;;;;;6.72;4.97;;;6.10;99.90;;;;;;5071293;28;20131;-48
2022/04/27 01:02:13;;;;;;;8.55;5.43;;;6.00;99.90;;;;;;5070265;28;20115;-47
2022/04/27 01:04:39;;;;;;;8.40;5.70;;;6.00;99.90;;;;;;5070240;28;20067;-47
2022/04/27 01:07:06;;;;;;;7.20;5.15;;;6.20;99.90;;;;;;5070049;28;20036;-47
2022/04/27 01:09:32;;;;;;;7.90;5.40;;;6.00;99.90;;;;;;5070286;28;20033;-48
2022/04/27 01:11:59;;;;;;;7.85;4.78;;;6.00;99.90;;;;;;5069911;28;20055;-45
2022/04/27 01:14:25;;;;;;;7.80;5.53;;;5.90;99.90;;;;;;5070300;28;20448;-47
2022/04/27 01:16:57;;;;;;;7.97;5.22;;;5.80;99.90;;;;;;5069427;28;20048;-45
2022/04/27 01:19:26;;;;;;;9.02;5.55;;;5.90;99.90;;;;;;5054535;28;20444;-47
2022/04/27 01:21:53;;;;;;;9.93;6.25;;;5.90;99.90;;;;;;5073675;28;20111;-47
2022/04/27 01:24:21;;;;;;;9.38;5.50;;;5.90;99.90;;;;;;5073569;28;20040;-48
2022/04/27 01:26:50;;;;;;;9.40;5.75;;;5.80;99.90;;;;;;5073479;28;20123;-45
2022/04/27 01:29:17;;;;;;;9.23;6.22;;;5.70;99.90;;;;;;5073577;28;20036;-48
2022/04/27 01:31:43;;;;;;;9.77;6.32;;;5.40;99.90;;;;;;5073633;28;20123;-47
2022/04/27 01:34:09;;;;;;;9.20;6.93;;;5.30;99.90;;;;;;5078171;28;20353;-46
2022/04/27 01:36:35;;;;;;;13.80;8.90;;;5.30;99.90;;;;;;5076331;28;20032;-46
2022/04/27 01:39:01;;;;;;;12.63;8.18;;;5.20;99.90;;;;;;5073093;28;20509;-45
2022/04/27 01:41:26;;;;;;;14.15;8.60;;;5.10;99.90;;;;;;5074300;28;20087;-46
2022/04/27 01:43:52;;;;;;;14.10;9.48;;;4.90;99.90;;;;;;5073087;28;20048;-47
2022/04/27 01:46:18;;;;;;;14.75;9.32;;;4.80;99.90;;;;;;5079661;28;20032;-46
2022/04/27 01:48:43;;;;;;;12.05;8.55;;;5.00;99.90;;;;;;5073247;28;20146;-46
2022/04/27 01:51:09;;;;;;;12.23;8.50;;;4.90;99.90;;;;;;5073108;28;20040;-44
2022/04/27 01:56:19;;;;;;;13.95;8.27;;;5.10;99.90;;;;;;5073140;28;20124;-48
2022/04/27 01:58:45;;;;;;;14.75;8.20;;;5.10;99.90;;;;;;5054888;28;20120;-46
2022/04/27 02:01:12;;;;;;;11.35;7.65;;;5.30;99.90;;;;;;5072957;28;20040;-47
2022/04/27 02:03:41;;;;;;;13.85;8.07;;;5.40;99.90;;;;;;5072936;28;20510;-48
2022/04/27 02:06:07;;;;;;;12.55;8.20;;;5.50;99.90;;;;;;5072770;28;20541;-48
2022/04/27 02:08:33;;;;;;;11.30;7.95;;;5.50;99.90;;;;;;5072958;28;20036;-44
2022/04/27 02:10:58;;;;;;;10.02;7.65;;;5.70;99.90;;;;;;5073075;28;20427;-47
2022/04/27 02:13:26;;;;;;;12.73;7.95;;;5.60;99.90;;;;;;5072623;28;20047;-48
2022/04/27 02:15:52;;;;;;;12.75;7.88;;;5.80;99.90;;;;;;5074527;28;20038;-49
2022/04/27 02:18:19;;;;;;;10.40;7.00;;;5.80;99.90;;;;;;5071894;28;20048;-49
2022/04/27 02:20:45;;;;;;;12.65;8.38;;;5.90;99.90;;;;;;5084181;28;20037;-46
2022/04/27 02:23:11;;;;;;;12.10;8.18;;;6.00;99.90;;;;;;5086973;28;20470;-48
2022/04/27 02:25:37;;;;;;;12.75;8.27;;;6.10;99.90;;;;;;5076094;28;20032;-46
2022/04/27 02:28:05;;;;;;;10.25;7.55;;;6.10;99.90;;;;;;5072085;28;20036;-49
2022/04/27 02:30:31;;;;;;;15.38;8.02;;;6.20;99.90;;;;;;5071099;28;20040;-45
2022/04/27 02:32:56;;;;;;;13.35;7.88;;;6.20;99.90;;;;;;5072114;28;20502;-45
2022/04/27 02:35:22;;;;;;;13.10;8.25;;;6.30;99.90;;;;;;5072276;28;20029;-45
2022/04/27 02:37:48;;;;;;;11.68;8.10;;;6.30;99.90;;;;;;5072364;28;20091;-44
2022/04/27 02:40:14;;;;;;;12.57;8.90;;;6.10;99.90;;;;;;5091060;28;20036;-46
2022/04/27 02:42:40;;;;;;;13.00;8.23;;;6.20;99.90;;;;;;5091928;28;20052;-45
2022/04/27 02:45:06;;;;;;;16.48;8.40;;;6.10;99.90;;;;;;5091770;28;20036;-46
2022/04/27 02:47:31;;;;;;;13.98;8.50;;;6.20;99.90;;;;;;5092213;28;20036;-45
2022/04/27 02:52:41;;;;;;;14.80;8.43;;;6.20;99.90;;;;;;5092332;28;20123;-47
2022/04/27 02:55:07;;;;;;;17.17;9.32;;;6.10;99.90;;;;;;5073613;28;20123;-47
2022/04/27 02:57:33;;;;;;;12.52;9.55;;;6.20;99.90;;;;;;5073618;28;20093;-49
2022/04/27 02:59:59;;;;;;;14.40;8.80;;;6.20;99.90;;;;;;5091855;28;20043;-48
2022/04/27 03:02:24;;;;;;;15.82;8.88;;;6.30;99.90;;;;;;5077022;28;20039;-47
2022/04/27 03:04:50;;;;;;;16.42;9.93;;;6.30;99.90;;;;;;5073351;28;20071;-46
2022/04/27 03:07:15;;;;;;;15.65;10.32;;;6.40;99.90;;;;;;5073202;28;20103;-45
2022/04/27 03:09:41;;;;;;;16.52;9.23;;;6.50;99.90;;;;;;5057112;28;20032;-47
2022/04/27 03:12:07;;;;;;;15.43;9.23;;;6.30;99.90;;;;;;5091611;28;20392;-49
2022/04/27 03:14:34;;;;;;;13.77;9.52;;;6.30;99.90;;;;;;5075046;28;20530;-48
2022/04/27 03:16:59;;;;;;;14.98;8.43;;;6.40;99.90;;;;;;5070683;28;20056;-48
2022/04/27 03:19:25;;;;;;;11.90;8.80;;;6.40;99.90;;;;;;5071469;28;20028;-47
2022/04/27 03:21:51;;;;;;;14.75;9.02;;;6.40;99.90;;;;;;5071156;28;20048;-46
2022/04/27 03:24:16;;;;;;;11.48;8.27;;;6.50;99.90;;;;;;5090157;28;20038;-45
2022/04/27 03:26:42;;;;;;;13.00;8.90;;;6.40;99.90;;;;;;5091617;28;20090;-50
2022/04/27 03:29:08;;;;;;;14.05;9.20;;;6.50;99.90;;;;;;5091276;28;20036;-46
2022/04/27 03:31:34;;;;;;;13.82;8.90;;;6.50;99.90;;;;;;5091351;28;20128;-46
2022/04/27 03:34:00;;;;;;;17.98;9.15;;;6.50;99.90;;;;;;5091258;28;20043;-47
2022/04/27 03:36:26;;;;;;;15.43;9.38;;;6.60;99.90;;;;;;5091332;28;20069;-48
2022/04/27 03:38:52;;;;;;;14.00;8.88;;;6.60;99.90;;;;;;5091470;28;20123;-46
2022/04/27 03:41:22;;;;;;;15.95;9.13;;;6.50;99.90;;;;;;5090788;28;20048;-47
2022/04/27 03:43:49;;;;;;;13.40;8.77;;;6.60;99.90;;;;;;5091004;28;20036;-50
2022/04/27 03:46:15;;;;;;;13.27;8.75;;;6.70;99.90;;;;;;5090886;28;20436;-47
2022/04/27 03:48:41;;;;;;;13.13;8.40;;;6.70;99.90;;;;;;5089945;28;20047;-46
2022/04/27 03:51:07;;;;;;;14.45;9.15;;;6.70;99.90;;;;;;5075623;28;20040;-45
2022/04/27 03:53:33;;;;;;;15.15;8.80;;;6.80;99.90;;;;;;5071665;28;20114;-45
2022/04/27 03:55:59;;;;;;;13.60;9.20;;;6.80;99.90;;;;;;5070541;28;20033;-46
2022/04/27 03:58:25;;;;;;;14.27;9.38;;;6.80;99.90;;;;;;5070529;28;20044;-48
2022/04/27 04:00:50;;;;;;;15.32;9.07;;;6.90;99.90;;;;;;5070970;28;20032;-48
2022/04/27 04:03:16;;;;;;;13.85;8.95;;;6.90;99.90;;;;;;5070814;28;20115;-49
2022/04/27 04:05:42;;;;;;;14.10;8.73;;;6.80;99.90;;;;;;5070778;28;20054;-48
2022/04/27 04:08:08;;;;;;;14.88;9.10;;;6.90;99.90;;;;;;5070535;28;20067;-45
2022/04/27 04:10:34;;;;;;;16.27;9.77;;;7.00;99.90;;;;;;5070673;28;20040;-47
2022/04/27 04:13:00;;;;;;;18.83;9.55;;;6.90;99.90;;;;;;5052353;28;20080;-46
2022/04/27 04:15:26;;;;;;;13.20;9.73;;;7.00;99.90;;;;;;5070073;28;20068;-46
2022/04/27 04:17:51;;;;;;;16.65;9.80;;;7.00;99.90;;;;;;5070290;28;20571;-46
2022/04/27 04:20:18;;;;;;;15.98;9.57;;;7.00;99.90;;;;;;5070045;28;20068;-46
2022/04/27 04:22:45;;;;;;;14.57;10.10;;;6.90;99.90;;;;;;5070490;28;20039;-51
2022/04/27 04:30:39;;;;;;;15.07;10.65;;;6.80;99.90;;;;;;5090420;28;20049;-47
2022/04/27 04:33:06;;;;;;;15.95;10.43;;;6.80;99.90;;;;;;5090311;28;20040;-47
2022/04/27 04:35:32;;;;;;;16.88;10.85;;;6.70;99.90;;;;;;5075734;28;20075;-48
2022/04/27 04:37:58;;;;;;;17.25;10.93;;;6.70;99.90;;;;;;5076100;28;20040;-48
2022/04/27 04:40:23;;;;;;;17.52;10.43;;;6.70;99.90;;;;;;5070064;28;20040;-47
2022/04/27 04:42:49;;;;;;;16.52;11.05;;;6.80;99.90;;;;;;5069900;28;20176;-48
2022/04/27 04:45:15;;;;;;;17.77;11.95;;;6.70;99.90;;;;;;5070850;28;20040;-46
2022/04/27 04:47:43;;;;;;;18.85;11.70;;;6.80;99.90;;;;;;5070402;28;20533;-48
2022/04/27 04:50:10;;;;;;;17.83;11.30;;;6.80;99.90;;;;;;5087393;28;20102;-48
2022/04/27 04:52:36;;;;;;;19.45;11.80;;;6.80;99.90;;;;;;5072283;28;20032;-46
2022/04/27 04:55:02;;;;;;;16.33;10.82;;;6.80;99.90;;;;;;5074717;28;20052;-47
2022/04/27 04:57:27;;;;;;;20.77;10.27;;;6.80;99.90;;;;;;5074731;28;20101;-46
2022/04/27 04:59:53;;;;;;;18.83;12.07;;;6.90;99.90;;;;;;5074956;28;20036;-46
2022/04/27 05:02:19;;;;;;;19.40;11.43;;;6.90;99.90;;;;;;5094326;28;20031;-46
2022/04/27 05:04:45;;;;;;;19.50;11.85;;;7.00;99.90;;;;;;5094112;28;20032;-45
2022/04/27 05:07:11;;;;;;;16.73;12.05;;;7.00;99.90;;;;;;5094214;28;20079;-45
2022/04/27 05:09:37;;;;;;;18.02;12.10;;;7.00;99.90;;;;;;5094019;28;20072;-47
2022/04/27 05:12:04;;;;;;;20.52;11.57;;;7.00;99.90;;;;;;5094078;28;20043;-47
2022/04/27 05:14:30;;;;;;;17.73;11.07;;;7.10;99.90;;;;;;5075626;28;20088;-47
2022/04/27 05:16:56;;;;;;;17.95;11.63;;;7.10;99.90;;;;;;5093652;28;20441;-49
2022/04/27 05:19:22;;;;;;;16.63;11.07;;;7.10;99.90;;;;;;5088655;28;20458;-45
2022/04/27 05:21:49;;;;;;;16.65;10.98;;;7.20;99.90;;;;;;5074975;28;20044;-46
2022/04/27 05:24:15;;;;;;;18.15;12.13;;;7.20;99.90;;;;;;5073454;28;20044;-47
2022/04/27 05:26:40;;;;;;;18.23;11.25;;;7.30;99.90;;;;;;5074815;28;20033;-45
2022/04/27 05:32:00;;;;;;;17.48;11.10;;;7.40;99.90;;;;;;5092982;28;20115;-48
2022/04/27 05:34:26;;;;;;;19.95;12.68;;;7.40;99.90;;;;;;5093706;28;20146;-47
2022/04/27 05:36:52;;;;;;;20.08;12.15;;;7.40;99.90;;;;;;5093482;28;20097;-48
2022/04/27 05:39:21;;;;;;;20.30;12.05;;;7.30;99.90;;;;;;5075436;28;20043;-48
2022/04/27 05:41:49;;;;;;;15.48;11.77;;;7.30;99.90;;;;;;5093252;28;20086;-46
2022/04/27 05:44:16;;;;;;;18.98;12.50;;;7.20;99.90;;;;;;5093645;28;20394;-48
2022/04/27 05:46:42;;;;;;;21.55;12.88;;;7.20;99.90;;;;;;5093078;28;20050;-46
2022/04/27 05:49:08;;;;;;;21.38;12.35;;;7.20;99.90;;;;;;5093445;28;20399;-46
2022/04/27 05:51:34;;;;;;;16.50;11.40;;;7.20;99.90;;;;;;5093527;28;20420;-48
2022/04/27 05:54:00;;;;;;;16.30;11.25;;;7.30;99.90;;;;;;5093652;28;20040;-49
2022/04/27 05:56:26;;;;;;;17.73;11.45;;;7.30;99.90;;;;;;5075261;28;20394;-51
2022/04/27 05:58:52;;;;;;;20.80;12.27;;;7.40;99.90;;;;;;5085787;28;20040;-48
2022/04/27 06:01:18;;;;;;;20.80;11.77;;;7.50;99.90;;;;;;5073259;28;20056;-47
2022/04/27 06:03:44;;;;;;;19.05;11.55;;;7.50;99.90;;;;;;5073508;28;20044;-45
2022/04/27 06:06:10;;;;;;;19.92;12.43;;;7.60;99.90;;;;;;5074901;28;20047;-48
2022/04/27 06:08:35;;;;;;;20.75;12.75;;;7.70;99.90;;;;;;5073815;28;20123;-47
2022/04/27 06:11:01;;;;;;;20.65;11.98;;;7.70;99.90;;;;;;5073227;28;20062;-46
2022/04/27 06:13:27;;;;;;;19.17;11.75;;;7.80;99.90;;;;;;5072856;28;20036;-47
2022/04/27 06:15:52;;;;;;;20.27;12.20;;;7.70;99.90;;;;;;5072200;28;20046;-46
2022/04/27 06:18:18;;;;;;;18.70;12.10;;;7.80;99.90;;;;;;5072208;28;20537;-51
2022/04/27 06:20:44;;;;;;;18.95;11.10;;;7.90;99.90;;;;;;5072419;28;20029;-47
2022/04/27 06:23:10;;;;;;;19.25;11.07;;;7.80;99.90;;;;;;5072757;28;20048;-47
2022/04/27 06:25:39;;;;;;;16.35;11.48;;;8.00;99.90;;;;;;5072799;28;20041;-49
2022/04/27 06:28:05;;;;;;;16.80;12.02;;;7.90;99.90;;;;;;5072347;28;20110;-47
2022/04/27 06:30:32;;;;;;;18.65;12.10;;;8.00;99.90;;;;;;5072379;28;20032;-46
2022/04/27 06:32:58;;;;;;;15.98;11.40;;;8.00;99.90;;;;;;5054437;28;20037;-48
2022/04/27 06:35:24;;;;;;;17.75;11.32;;;8.10;99.90;;;;;;5072198;28;20446;-46
2022/04/27 06:37:49;;;;;;;20.35;12.25;;;8.10;99.90;;;;;;5073005;28;20434;-49
2022/04/27 06:40:15;;;;;;;20.15;11.32;;;8.20;99.90;;;;;;5066601;28;20043;-46
2022/04/27 06:42:44;;;;;;;15.23;10.73;;;8.30;99.90;;;;;;5068220;28;20048;-47
2022/04/27 06:45:10;;;;;;;23.33;11.60;;;8.40;99.90;;;;;;5065200;28;20098;-48
2022/04/27 06:47:36;;;;;;;16.92;11.00;;;8.50;99.90;;;;;;5066661;28;20024;-48
2022/04/27 06:50:02;;;;;;;18.08;10.15;;;8.50;99.90;;;;;;5049707;28;20365;-45
2022/04/27 06:52:28;;;;;;;18.60;10.90;;;8.50;99.90;;;;;;5068289;28;20052;-47
2022/04/27 06:54:53;;;;;;;21.20;12.23;;;8.60;99.90;;;;;;5068040;28;20105;-47
2022/04/27 06:57:19;;;;;;;19.77;12.63;;;8.60;99.90;;;;;;5067239;28;20044;-48
2022/04/27 06:59:45;;;;;;;18.48;12.00;;;8.70;99.90;;;;;;5065686;28;20033;-48
2022/04/27 07:02:12;;;;;;;17.65;11.65;;;8.70;99.90;;;;;;5065101;28;20046;-50
2022/04/27 07:04:40;;;;;;;15.80;11.55;;;8.90;99.90;;;;;;5066561;28;20051;-47
2022/04/27 07:07:07;;;;;;;21.40;11.75;;;8.90;99.90;;;;;;5066532;28;20048;-47
2022/04/27 07:09:33;;;;;;;19.13;12.07;;;9.00;99.90;;;;;;5066444;28;20459;-49
2022/04/27 07:11:59;;;;;;;21.48;11.73;;;9.00;99.90;;;;;;5067117;28;20068;-51
2022/04/27 07:14:25;;;;;;;18.48;11.38;;;9.10;99.90;;;;;;5065731;28;20051;-50
2022/04/27 07:16:50;;;;;;;19.55;10.93;;;9.00;99.90;;;;;;5048352;28;20047;-49
2022/04/27 07:19:17;;;;;;;20.88;11.13;;;9.10;99.90;;;;;;5066210;28;20131;-47
2022/04/27 07:21:43;;;;;;;16.75;11.00;;;9.20;99.90;;;;;;5064983;28;20114;-49
2022/04/27 07:24:09;;;;;;;18.02;11.70;;;9.20;99.90;;;;;;5064426;28;20033;-48
2022/04/27 07:26:35;;;;;;;18.73;9.93;;;9.30;99.90;;;;;;5064188;28;20122;-49
2022/04/27 07:29:01;;;;;;;16.42;9.07;;;9.30;99.90;;;;;;5066588;28;20119;-49
2022/04/27 07:31:26;;;;;;;19.20;9.68;;;9.30;99.90;;;;;;5065943;28;20033;-48
2022/04/27 07:33:52;;;;;;;15.45;8.02;;;9.30;99.90;;;;;;5067455;28;20037;-48
2022/04/27 07:36:18;;;;;;;15.05;7.85;;;9.50;99.90;;;;;;5067119;28;20043;-48
2022/04/27 07:38:45;;;;;;;14.65;7.38;;;9.50;99.90;;;;;;5065809;28;20044;-52
2022/04/27 07:41:11;;;;;;;13.88;7.10;;;9.50;99.90;;;;;;5066165;28;20526;-48
2022/04/27 07:43:36;;;;;;;13.90;7.05;;;9.70;99.90;;;;;;5064224;28;20044;-47
2022/04/27 07:46:05;;;;;;;14.85;7.10;;;9.60;99.90;;;;;;5064234;28;20036;-47
2022/04/27 07:48:32;;;;;;;15.68;7.35;;;9.70;99.90;;;;;;5065412;28;20045;-50
2022/04/27 07:51:02;;;;;;;14.63;7.80;;;9.80;99.90;;;;;;5064471;28;20040;-49
2022/04/27 07:53:28;;;;;;;16.52;7.53;;;9.90;99.90;;;;;;5064436;28;20033;-47
2022/04/27 07:55:54;;;;;;;15.60;8.23;;;9.90;99.90;;;;;;5066350;28;20040;-48
2022/04/27 07:58:21;;;;;;;14.68;7.47;;;10.00;99.90;;;;;;5064446;28;20037;-49
2022/04/27 08:00:47;;;;;;;13.80;7.32;;;10.00;99.90;;;;;;5069758;28;20552;-48
2022/04/27 08:03:13;;;;;;;13.68;7.20;;;10.00;99.90;;;;;;5065975;28;20032;-50
2022/04/27 08:05:38;;;;;;;15.15;6.80;;;10.10;99.90;;;;;;5065457;28;20492;-47
2022/04/27 08:08:05;;;;;;;12.30;6.50;;;10.20;99.90;;;;;;5065096;28;20052;-49
2022/04/27 08:10:31;;;;;;;13.85;6.93;;;10.30;99.90;;;;;;5066475;28;20400;-49
2022/04/27 08:12:57;;;;;;;11.93;6.47;;;10.30;99.90;;;;;;5047422;28;20040;-47
2022/04/27 08:15:25;;;;;;;12.55;7.05;;;10.30;99.90;;;;;;5066066;28;20115;-48
2022/04/27 08:17:53;;;;;;;13.43;6.28;;;10.30;99.90;;;;;;5064677;28;20036;-49
2022/04/27 08:23:14;;;;;;;11.07;4.90;;;10.40;99.90;;;;;;5066567;28;20106;-48
2022/04/27 08:25:40;;;;;;;11.25;5.20;;;10.40;99.90;;;;;;5065697;28;20037;-47
2022/04/27 08:28:07;;;;;;;9.35;4.95;;;10.50;99.90;;;;;;5066116;28;20093;-49
2022/04/27 08:30:37;;;;;;;9.23;3.72;;;10.60;99.90;;;;;;5050144;28;20391;-49
2022/04/27 08:33:05;;;;;;;8.07;3.83;;;10.70;99.90;;;;;;5070436;28;20092;-45
2022/04/27 08:35:32;;;;;;;10.77;5.32;;;10.80;99.90;;;;;;5068396;28;20040;-45
2022/04/27 08:38:01;;;;;;;8.77;4.10;;;10.90;99.90;;;;;;5068473;28;23512;-46
2022/04/27 08:40:28;;;;;;;9.20;3.75;;;11.10;99.90;;;;;;5070177;28;20039;-48
2022/04/27 08:42:55;;;;;;;6.38;3.58;;;11.00;99.90;;;;;;5067333;28;20057;-47
2022/04/27 08:45:21;;;;;;;7.35;3.50;;;11.00;99.90;;;;;;5067067;28;20080;-47
2022/04/27 08:47:49;;;;;;;8.27;3.47;;;10.90;99.90;;;;;;5066930;28;20512;-48
2022/04/27 08:50:17;;;;;;;6.78;3.55;;;11.00;99.90;;;;;;5068214;28;20088;-45
2022/04/27 08:52:44;;;;;;;9.95;3.50;;;11.10;99.90;;;;;;5066354;28;20027;-46
2022/04/27 08:55:11;;;;;;;7.70;3.25;;;11.20;99.90;;;;;;5047210;28;20067;-47
2022/04/27 08:57:38;;;;;;;8.23;3.28;;;11.30;99.90;;;;;;5070890;28;20178;-45
2022/04/27 09:00:06;;;;;;;7.10;3.55;;;11.40;99.90;;;;;;5083992;28;20119;-45
2022/04/27 09:02:33;;;;;;;6.35;3.13;;;11.50;99.90;;;;;;5092088;28;20486;-44
2022/04/27 09:05:09;;;;;;;7.38;3.70;;;11.40;99.90;;;;;;5072548;28;20040;-47
2022/04/27 09:07:36;;;;;;;7.90;3.63;;;11.50;99.90;;;;;;5091287;28;20380;-49
2022/04/27 09:10:02;;;;;;;6.63;3.28;;;11.60;99.90;;;;;;5075016;28;20040;-50
2022/04/27 09:12:28;;;;;;;11.38;3.90;;;11.70;99.90;;;;;;5071722;28;20040;-46
2022/04/27 09:15:06;;;;;;;7.25;3.83;;;11.80;99.90;;;;;;5072831;28;20426;-47
2022/04/27 09:23:03;;;;;;;6.28;3.03;;;11.80;99.90;;;;;;5073358;28;20040;-50
2022/04/27 09:25:34;;;;;;;7.70;3.63;;;11.90;99.90;;;;;;5072924;28;20480;-44
2022/04/27 09:28:02;;;;;;;9.40;3.63;;;12.10;99.90;;;;;;5072457;28;20049;-46
2022/04/27 09:30:29;;;;;;;7.85;3.40;;;12.20;99.90;;;;;;5073271;28;20107;-46
2022/04/27 09:32:54;;;;;;;11.23;3.60;;;12.10;99.90;;;;;;5072938;28;20097;-46
2022/04/27 09:35:40;;;;;;;10.98;3.25;;;11.90;99.90;;;;;;5072882;28;20032;-48
2022/04/27 09:38:16;;;;;;;9.13;3.85;;;11.90;99.90;;;;;;5071715;28;20041;-48
2022/04/27 09:40:58;;;;;;;8.20;3.00;;;12.00;99.90;;;;;;5071875;28;20474;-45
2022/04/27 09:43:43;;;;;;;8.32;3.75;;;12.00;99.90;;;;;;5072331;28;20458;-49
2022/04/27 09:46:17;;;;;;;9.02;3.17;;;11.80;99.90;;;;;;5072227;28;20082;-47
2022/04/27 09:48:46;;;;;;;6.88;3.00;;;11.80;99.90;;;;;;5071997;28;20036;-48
2022/04/27 09:51:14;;;;;;;7.43;2.85;;;11.70;99.90;;;;;;5072612;28;20044;-47
2022/04/27 09:53:42;;;;;;;8.48;3.00;;;11.90;99.90;;;;;;5072435;28;20041;-47
2022/04/27 09:56:11;;;;;;;6.82;2.88;;;11.70;99.90;;;;;;5072564;28;20048;-48
2022/04/27 09:58:43;;;;;;;7.90;3.10;;;11.70;99.90;;;;;;5071754;28;20037;-48
2022/04/27 10:01:11;;;;;;;8.52;3.70;;;11.60;99.90;;;;;;5064131;28;20518;-49
2022/04/27 10:03:39;;;;;;;6.80;3.20;;;11.60;99.90;;;;;;5066768;28;20100;-47
2022/04/27 10:06:06;;;;;;;7.80;3.30;;;11.50;99.90;;;;;;5066404;28;20036;-48
2022/04/27 10:08:35;;;;;;;7.95;3.42;;;11.60;99.90;;;;;;5066944;28;20040;-47
2022/04/27 10:11:01;;;;;;;7.38;3.08;;;11.60;99.90;;;;;;5066518;28;20043;-47
2022/04/27 10:13:28;;;;;;;7.68;3.50;;;11.80;99.90;;;;;;5065659;28;20036;-50
2022/04/27 10:15:54;;;;;;;10.25;3.33;;;11.80;99.90;;;;;;5065192;28;20975;-50
2022/04/27 10:18:20;;;;;;;8.38;3.50;;;12.00;99.90;;;;;;5069184;28;20040;-48
2022/04/27 10:20:51;;;;;;;8.07;3.42;;;11.90;99.90;;;;;;5069788;28;20045;-52
2022/04/27 10:23:24;;;;;;;6.30;3.08;;;11.80;99.90;;;;;;5068110;28;20039;-47
2022/04/27 10:26:09;;;;;;;6.72;3.22;;;12.00;99.90;;;;;;5066068;28;20032;-48
2022/04/27 10:28:37;;;;;;;8.05;3.25;;;11.80;99.90;;;;;;5065825;28;20039;-47
2022/04/27 10:31:04;;;;;;;6.53;3.20;;;12.00;99.90;;;;;;5049579;28;20044;-48
2022/04/27 10:33:47;;;;;;;9.77;3.50;;;12.00;99.90;;;;;;5066744;28;20032;-47
2022/04/27 10:36:36;;;;;;;6.53;3.20;;;12.30;99.90;;;;;;5068732;28;20040;-47
2022/04/27 10:39:11;;;;;;;9.80;3.40;;;12.40;99.90;;;;;;5067068;28;20443;-49
2022/04/27 10:41:39;;;;;;;7.07;3.65;;;12.60;99.90;;;;;;5065564;28;20059;-49
2022/04/27 10:44:05;;;;;;;8.40;3.15;;;12.80;99.90;;;;;;5065792;28;20024;-48
2022/04/27 10:46:35;;;;;;;8.52;3.80;;;12.70;99.90;;;;;;5063200;28;20161;-48
2022/04/27 10:49:01;;;;;;;6.13;3.17;;;12.70;99.90;;;;;;5065808;28;20041;-47
2022/04/27 10:51:27;;;;;;;9.27;3.53;;;13.00;99.90;;;;;;5065903;28;20086;-47
2022/04/27 10:54:03;;;;;;;7.40;3.83;;;12.70;99.90;;;;;;5064465;28;20043;-48
2022/04/27 10:56:29;;;;;;;8.20;3.47;;;12.70;99.90;;;;;;5066971;28;20052;-48
2022/04/27 10:58:55;;;;;;;6.57;3.25;;;12.70;99.90;;;;;;5067422;28;20109;-47
2022/04/27 11:01:26;;;;;;;9.05;3.63;;;12.50;99.90;;;;;;5066353;28;20500;-47
2022/04/27 11:04:00;;;;;;;7.57;3.08;;;12.40;99.90;;;;;;5064939;28;20037;-47
2022/04/27 11:06:26;;;;;;;6.90;3.20;;;12.70;99.90;;;;;;5062073;28;20036;-48
2022/04/27 11:09:12;;;;;;;5.93;2.88;;;12.60;99.90;;;;;;5066192;28;20090;-50
2022/04/27 11:11:51;;;;;;;6.72;3.17;;;12.50;99.90;;;;;;5064445;28;20571;-49
2022/04/27 11:14:19;;;;;;;9.90;3.28;;;12.40;99.90;;;;;;5064310;28;20048;-48
2022/04/27 11:16:49;;;;;;;8.45;3.55;;;12.30;99.90;;;;;;5050072;28;20029;-47
2022/04/27 11:19:15;;;;;;;8.63;3.78;;;12.60;99.90;;;;;;5066290;28;20047;-50
2022/04/27 11:21:41;;;;;;;7.70;3.58;;;12.50;99.90;;;;;;5063542;28;20492;-47
2022/04/27 11:24:11;;;;;;;6.30;3.25;;;12.20;99.90;;;;;;5066915;28;20029;-51
2022/04/27 11:26:41;;;;;;;7.15;3.50;;;12.30;99.90;;;;;;5064658;28;20032;-47
2022/04/27 11:29:07;;;;;;;10.07;4.00;;;12.40;99.90;;;;;;5064561;28;20615;-48
2022/04/27 11:31:33;;;;;;;7.32;3.70;;;12.60;99.90;;;;;;5064788;28;20123;-49
2022/04/27 11:33:59;;;;;;;7.80;4.30;;;12.30;99.90;;;;;;5065036;28;20059;-50
2022/04/27 11:36:26;;;;;;;7.40;4.25;;;12.10;99.90;;;;;;5065980;28;20056;-50
2022/04/27 11:38:53;;;;;;;9.52;4.05;;;12.60;99.90;;;;;;5063652;28;20049;-49
2022/04/27 11:41:21;;;;;;;8.77;4.07;;;12.80;99.90;;;;;;5069293;28;20036;-49
2022/04/27 11:43:53;;;;;;;9.10;4.38;;;12.50;99.90;;;;;;5076404;28;20028;-48
2022/04/27 11:46:19;;;;;;;11.23;4.10;;;12.60;99.90;;;;;;5086568;28;20115;-48
2022/04/27 11:48:49;;;;;;;9.48;4.63;;;12.20;99.90;;;;;;5087722;28;20173;-52
2022/04/27 11:51:15;;;;;;;9.32;4.40;;;12.20;99.90;;;;;;5088441;28;20047;-48
2022/04/27 11:53:47;;;;;;;8.10;3.88;;;12.10;99.90;;;;;;5070182;28;20047;-49
2022/04/27 11:56:13;;;;;;;8.32;4.55;;;12.20;99.90;;;;;;5054586;28;20040;-49
2022/04/27 11:58:39;;;;;;;7.28;4.35;;;12.20;99.90;;;;;;5089945;28;20518;-47
2022/04/27 12:01:05;;;;;;;11.90;4.63;;;12.30;99.90;;;;;;5090046;28;20068;-48
2022/04/27 12:03:38;;;;;;;11.00;4.93;;;12.30;99.90;;;;;;5090330;28;20383;-47
2022/04/27 12:06:05;;;;;;;9.30;3.95;;;12.60;99.90;;;;;;5072242;28;20034;-50
2022/04/27 12:08:31;;;;;;;8.35;4.10;;;12.50;99.90;;;;;;5089691;28;20086;-48
2022/04/27 12:10:56;;;;;;;10.85;4.57;;;12.60;99.90;;;;;;5090024;28;20093;-46
2022/04/27 12:13:23;;;;;;;10.02;4.78;;;12.70;99.90;;;;;;5089736;28;20173;-47
2022/04/27 12:15:58;;;;;;;11.05;5.00;;;12.50;99.90;;;;;;5089594;28;20055;-49
2022/04/27 12:18:28;;;;;;;8.65;4.10;;;12.80;99.90;;;;;;5089464;28;20514;-47
2022/04/27 12:20:56;;;;;;;10.05;4.20;;;12.70;99.90;;;;;;5090037;28;20039;-49
2022/04/27 12:23:34;;;;;;;10.55;4.55;;;12.90;99.90;;;;;;5090053;28;20051;-48
2022/04/27 12:26:00;;;;;;;8.80;3.85;;;12.70;99.90;;;;;;5071958;28;20483;-48
2022/04/27 12:28:34;;;;;;;9.40;3.78;;;12.80;99.90;;;;;;5089564;28;20072;-49
2022/04/27 12:31:04;;;;;;;7.20;3.40;;;12.70;99.90;;;;;;5089967;28;20100;-50
2022/04/27 12:33:42;;;;;;;12.70;3.72;;;13.10;99.90;;;;;;5086694;28;20105;-47
2022/04/27 12:39:07;;;;;;;11.48;3.60;;;13.30;99.90;;;;;;5070448;28;20121;-47
2022/04/27 12:41:41;;;;;;;9.98;3.50;;;13.50;99.90;;;;;;5070526;28;20470;-49
2022/04/27 12:44:09;;;;;;;8.90;3.17;;;13.40;99.90;;;;;;5049970;28;20053;-50
2022/04/27 12:46:38;;;;;;;8.13;3.10;;;13.60;99.90;;;;;;5054288;28;20040;-47
2022/04/27 12:49:08;;;;;;;9.32;2.90;;;13.50;99.90;;;;;;5053953;28;20032;-50
2022/04/27 12:51:35;;;;;;;8.65;3.22;;;13.50;99.90;;;;;;5056447;28;20033;-47
2022/04/27 12:54:04;;;;;;;8.98;3.35;;;13.50;99.90;;;;;;5063070;28;20048;-48
2022/04/27 12:56:32;;;;;;;10.13;4.03;;;13.60;99.90;;;;;;5069098;28;20407;-49
2022/04/27 12:59:10;;;;;;;6.60;2.97;;;13.60;99.90;;;;;;5069813;28;20050;-48
2022/04/27 13:01:36;;;;;;;8.85;3.03;;;13.40;99.90;;;;;;5066451;28;20589;-48
2022/04/27 13:04:02;;;;;;;8.20;3.30;;;13.30;99.90;;;;;;5034596;28;20127;-46
2022/04/27 13:06:31;;;;;;;6.57;3.10;;;13.00;99.90;;;;;;5051674;28;20530;-47
2022/04/27 13:11:57;;;;;;;9.57;3.50;;;13.00;99.90;;;;;;5068780;28;20039;-51
2022/04/27 13:14:25;;;;;;;11.88;4.00;;;13.00;99.90;;;;;;5070357;28;20040;-49